sensor_id;sensor_type;location;lat;lon;timestamp;pressure;altitude;pressure_sealevel;temperature;humidity
13235;BME280;6683;48.506;9.050;2023-12-22T00:02:06;96945.25;;;10.71;75.12
13235;BME280;6683;48.506;9.050;2023-12-22T00:05:08;96938.38;;;10.70;75.36
13235;BME280;6683;48.506;9.050;2023-12-22T00:08:15;96944.66;;;10.69;75.49
13235;BME280;6683;48.506;9.050;2023-12-22T00:11:17;96943.06;;;10.68;75.44
13235;BME280;6683;48.506;9.050;2023-12-22T00:14:19;96958.91;;;10.68;74.95
13235;BME280;6683;48.506;9.050;2023-12-22T00:17:21;96959.31;;;10.65;75.00
13235;BME280;6683;48.506;9.050;2023-12-22T00:20:23;96955.88;;;10.64;75.33
13235;BME280;6683;48.506;9.050;2023-12-22T00:23:27;96960.38;;;10.64;75.23
13235;BME280;6683;48.506;9.050;2023-12-22T00:26:29;96964.59;;;10.65;75.03
13235;BME280;6683;48.506;9.050;2023-12-22T00:29:31;96970.09;;;10.63;75.06
13235;BME280;6683;48.506;9.050;2023-12-22T00:32:36;96981.25;;;10.65;75.07
13235;BME280;6683;48.506;9.050;2023-12-22T00:35:38;96982.06;;;10.66;75.43
13235;BME280;6683;48.506;9.050;2023-12-22T00:38:42;96977.56;;;10.66;75.41
13235;BME280;6683;48.506;9.050;2023-12-22T00:41:44;96993.22;;;10.68;75.34
13235;BME280;6683;48.506;9.050;2023-12-22T00:44:46;96982.19;;;10.71;75.45
13235;BME280;6683;48.506;9.050;2023-12-22T00:47:48;96970.41;;;10.73;75.30
13235;BME280;6683;48.506;9.050;2023-12-22T00:50:50;96971.81;;;10.76;75.60
13235;BME280;6683;48.506;9.050;2023-12-22T00:53:53;96953.47;;;10.81;75.51
13235;BME280;6683;48.506;9.050;2023-12-22T00:56:55;96952.25;;;10.83;75.79
13235;BME280;6683;48.506;9.050;2023-12-22T00:59:58;96961.16;;;10.89;75.59
13235;BME280;6683;48.506;9.050;2023-12-22T01:03:00;96961.72;;;10.91;75.28
13235;BME280;6683;48.506;9.050;2023-12-22T01:06:02;96954.16;;;10.94;75.43
13235;BME280;6683;48.506;9.050;2023-12-22T01:09:06;96957.16;;;10.98;75.32
13235;BME280;6683;48.506;9.050;2023-12-22T01:12:08;96969.72;;;11.02;75.50
13235;BME280;6683;48.506;9.050;2023-12-22T01:15:11;96971.13;;;11.05;75.16
13235;BME280;6683;48.506;9.050;2023-12-22T01:18:13;96961.38;;;11.05;75.31
13235;BME280;6683;48.506;9.050;2023-12-22T01:21:15;96980.06;;;11.04;75.15
13235;BME280;6683;48.506;9.050;2023-12-22T01:24:19;96972.00;;;10.99;74.62
13235;BME280;6683;48.506;9.050;2023-12-22T01:27:21;96986.06;;;10.93;74.86
13235;BME280;6683;48.506;9.050;2023-12-22T01:30:23;96986.34;;;10.85;74.59
13235;BME280;6683;48.506;9.050;2023-12-22T01:33:25;96998.56;;;10.79;74.50
13235;BME280;6683;48.506;9.050;2023-12-22T01:36:27;97010.00;;;10.73;74.44
13235;BME280;6683;48.506;9.050;2023-12-22T01:39:31;97002.13;;;10.67;74.44
13235;BME280;6683;48.506;9.050;2023-12-22T01:42:33;97028.78;;;10.59;74.36
13235;BME280;6683;48.506;9.050;2023-12-22T01:45:35;97041.44;;;10.50;74.14
13235;BME280;6683;48.506;9.050;2023-12-22T01:48:38;97079.63;;;10.41;74.14
13235;BME280;6683;48.506;9.050;2023-12-22T01:51:41;97043.59;;;10.28;73.87
13235;BME280;6683;48.506;9.050;2023-12-22T01:54:45;97026.25;;;10.08;73.09
13235;BME280;6683;48.506;9.050;2023-12-22T01:57:48;97014.78;;;9.89;73.48
13235;BME280;6683;48.506;9.050;2023-12-22T02:00:52;97022.38;;;9.73;73.98
13235;BME280;6683;48.506;9.050;2023-12-22T02:03:56;97023.84;;;9.62;74.10
13235;BME280;6683;48.506;9.050;2023-12-22T02:07:01;97016.78;;;9.56;74.23
13235;BME280;6683;48.506;9.050;2023-12-22T02:10:06;97041.91;;;9.52;74.58
13235;BME280;6683;48.506;9.050;2023-12-22T02:13:09;97062.16;;;9.51;74.99
13235;BME280;6683;48.506;9.050;2023-12-22T02:16:17;97038.47;;;9.51;75.45
13235;BME280;6683;48.506;9.050;2023-12-22T02:19:31;97038.06;;;9.54;75.19
13235;BME280;6683;48.506;9.050;2023-12-22T02:22:39;97020.81;;;9.58;75.55
13235;BME280;6683;48.506;9.050;2023-12-22T02:25:41;97016.75;;;9.62;75.56
13235;BME280;6683;48.506;9.050;2023-12-22T02:28:44;97024.03;;;9.67;75.41
13235;BME280;6683;48.506;9.050;2023-12-22T02:31:49;97038.19;;;9.73;75.49
13235;BME280;6683;48.506;9.050;2023-12-22T02:34:56;97028.66;;;9.78;75.52
13235;BME280;6683;48.506;9.050;2023-12-22T02:38:03;97043.03;;;9.82;75.48
13235;BME280;6683;48.506;9.050;2023-12-22T02:41:08;97043.00;;;9.89;75.46
13235;BME280;6683;48.506;9.050;2023-12-22T02:44:10;97042.16;;;9.95;75.30
13235;BME280;6683;48.506;9.050;2023-12-22T02:47:13;97044.13;;;9.99;74.97
13235;BME280;6683;48.506;9.050;2023-12-22T02:50:16;97048.78;;;10.04;74.97
13235;BME280;6683;48.506;9.050;2023-12-22T02:53:19;97058.69;;;10.08;75.38
13235;BME280;6683;48.506;9.050;2023-12-22T02:56:22;97051.00;;;10.13;75.30
13235;BME280;6683;48.506;9.050;2023-12-22T02:59:24;97073.91;;;10.19;75.44
13235;BME280;6683;48.506;9.050;2023-12-22T03:02:26;97103.66;;;10.26;75.45
13235;BME280;6683;48.506;9.050;2023-12-22T03:05:28;97046.84;;;10.30;74.89
13235;BME280;6683;48.506;9.050;2023-12-22T03:08:32;97062.69;;;10.30;75.12
13235;BME280;6683;48.506;9.050;2023-12-22T03:11:34;97078.50;;;10.30;74.81
13235;BME280;6683;48.506;9.050;2023-12-22T03:14:37;97071.81;;;10.28;74.76
13235;BME280;6683;48.506;9.050;2023-12-22T03:17:39;97071.22;;;10.26;74.86
13235;BME280;6683;48.506;9.050;2023-12-22T03:20:41;97072.81;;;10.27;75.00
13235;BME280;6683;48.506;9.050;2023-12-22T03:23:45;97065.13;;;10.25;74.51
13235;BME280;6683;48.506;9.050;2023-12-22T03:26:47;97057.44;;;10.24;74.60
13235;BME280;6683;48.506;9.050;2023-12-22T03:29:49;97062.91;;;10.22;74.41
13235;BME280;6683;48.506;9.050;2023-12-22T03:32:51;97049.13;;;10.20;74.43
13235;BME280;6683;48.506;9.050;2023-12-22T03:35:54;97059.28;;;10.17;74.62
13235;BME280;6683;48.506;9.050;2023-12-22T03:38:57;97048.97;;;10.15;74.84
13235;BME280;6683;48.506;9.050;2023-12-22T03:41:59;97050.56;;;10.16;74.63
13235;BME280;6683;48.506;9.050;2023-12-22T03:45:02;97043.69;;;10.15;74.39
13235;BME280;6683;48.506;9.050;2023-12-22T03:48:06;97040.47;;;10.13;74.56
13235;BME280;6683;48.506;9.050;2023-12-22T03:51:08;97040.66;;;10.12;74.59
13235;BME280;6683;48.506;9.050;2023-12-22T03:54:12;97042.50;;;10.11;74.83
13235;BME280;6683;48.506;9.050;2023-12-22T03:57:16;97041.69;;;10.11;74.42
13235;BME280;6683;48.506;9.050;2023-12-22T04:00:19;97052.84;;;10.13;74.51
13235;BME280;6683;48.506;9.050;2023-12-22T04:03:21;97044.91;;;10.13;74.83
13235;BME280;6683;48.506;9.050;2023-12-22T04:06:23;97037.22;;;10.11;74.76
13235;BME280;6683;48.506;9.050;2023-12-22T04:09:27;97041.69;;;10.11;74.67
13235;BME280;6683;48.506;9.050;2023-12-22T04:12:29;97027.47;;;10.12;74.81
13235;BME280;6683;48.506;9.050;2023-12-22T04:15:31;97044.09;;;10.12;74.63
13235;BME280;6683;48.506;9.050;2023-12-22T04:18:33;97041.47;;;10.12;74.48
13235;BME280;6683;48.506;9.050;2023-12-22T04:21:36;97051.00;;;10.13;74.88
13235;BME280;6683;48.506;9.050;2023-12-22T04:24:39;97065.56;;;10.16;75.18
13235;BME280;6683;48.506;9.050;2023-12-22T04:27:41;97089.28;;;10.22;75.21
13235;BME280;6683;48.506;9.050;2023-12-22T04:30:44;97066.31;;;10.29;75.32
13235;BME280;6683;48.506;9.050;2023-12-22T04:33:46;97068.34;;;10.34;75.45
13235;BME280;6683;48.506;9.050;2023-12-22T04:36:48;97078.03;;;10.40;75.25
13235;BME280;6683;48.506;9.050;2023-12-22T04:39:51;97074.34;;;10.41;75.09
13235;BME280;6683;48.506;9.050;2023-12-22T04:42:53;97092.63;;;10.42;75.35
13235;BME280;6683;48.506;9.050;2023-12-22T04:45:56;97091.59;;;10.43;75.14
13235;BME280;6683;48.506;9.050;2023-12-22T04:48:58;97104.59;;;10.45;74.88
13235;BME280;6683;48.506;9.050;2023-12-22T04:52:00;97102.75;;;10.45;75.02
13235;BME280;6683;48.506;9.050;2023-12-22T04:55:05;97078.00;;;10.47;74.91
13235;BME280;6683;48.506;9.050;2023-12-22T04:58:07;97097.88;;;10.49;74.89
13235;BME280;6683;48.506;9.050;2023-12-22T05:01:09;97106.38;;;10.51;74.75
13235;BME280;6683;48.506;9.050;2023-12-22T05:04:12;97113.47;;;10.51;75.05
13235;BME280;6683;48.506;9.050;2023-12-22T05:07:14;97108.44;;;10.49;74.59
13235;BME280;6683;48.506;9.050;2023-12-22T05:10:18;97115.31;;;10.50;74.99
13235;BME280;6683;48.506;9.050;2023-12-22T05:13:20;97110.41;;;10.54;74.81
13235;BME280;6683;48.506;9.050;2023-12-22T05:16:22;97099.22;;;10.58;75.24
13235;BME280;6683;48.506;9.050;2023-12-22T05:19:24;97109.34;;;10.61;74.89
13235;BME280;6683;48.506;9.050;2023-12-22T05:22:27;97105.25;;;10.65;74.98
13235;BME280;6683;48.506;9.050;2023-12-22T05:25:32;97087.97;;;10.69;75.21
13235;BME280;6683;48.506;9.050;2023-12-22T05:28:34;97110.28;;;10.73;74.99
13235;BME280;6683;48.506;9.050;2023-12-22T05:31:37;97109.88;;;10.76;74.91
13235;BME280;6683;48.506;9.050;2023-12-22T05:34:40;97105.78;;;10.80;75.03
13235;BME280;6683;48.506;9.050;2023-12-22T05:37:42;97105.56;;;10.82;74.73
13235;BME280;6683;48.506;9.050;2023-12-22T05:40:46;97108.78;;;10.84;75.12
13235;BME280;6683;48.506;9.050;2023-12-22T05:43:49;97116.25;;;10.87;74.85
13235;BME280;6683;48.506;9.050;2023-12-22T05:46:52;97120.31;;;10.89;74.67
13235;BME280;6683;48.506;9.050;2023-12-22T05:49:54;97122.75;;;10.91;74.99
13235;BME280;6683;48.506;9.050;2023-12-22T05:52:56;97120.91;;;10.91;74.69
13235;BME280;6683;48.506;9.050;2023-12-22T05:55:59;97134.09;;;10.91;74.73
13235;BME280;6683;48.506;9.050;2023-12-22T05:59:02;97136.75;;;10.91;74.57
13235;BME280;6683;48.506;9.050;2023-12-22T06:02:04;97134.09;;;10.91;74.59
13235;BME280;6683;48.506;9.050;2023-12-22T06:05:07;97141.00;;;10.92;74.73
13235;BME280;6683;48.506;9.050;2023-12-22T06:08:09;97145.25;;;10.93;74.43
13235;BME280;6683;48.506;9.050;2023-12-22T06:11:13;97150.34;;;10.95;74.51
13235;BME280;6683;48.506;9.050;2023-12-22T06:14:15;97152.53;;;10.98;74.58
13235;BME280;6683;48.506;9.050;2023-12-22T06:17:18;97166.34;;;11.00;74.78
13235;BME280;6683;48.506;9.050;2023-12-22T06:20:20;97185.41;;;11.02;74.46
13235;BME280;6683;48.506;9.050;2023-12-22T06:23:22;97179.13;;;11.03;74.37
13235;BME280;6683;48.506;9.050;2023-12-22T06:26:26;97172.03;;;11.03;74.33
13235;BME280;6683;48.506;9.050;2023-12-22T06:29:28;97178.09;;;11.04;74.27
13235;BME280;6683;48.506;9.050;2023-12-22T06:32:31;97190.28;;;11.05;74.07
13235;BME280;6683;48.506;9.050;2023-12-22T06:35:33;97208.75;;;11.05;74.35
13235;BME280;6683;48.506;9.050;2023-12-22T06:38:36;97203.47;;;11.05;74.13
13235;BME280;6683;48.506;9.050;2023-12-22T06:41:39;97218.72;;;11.03;74.02
13235;BME280;6683;48.506;9.050;2023-12-22T06:44:42;97210.00;;;11.02;74.37
13235;BME280;6683;48.506;9.050;2023-12-22T06:47:44;97237.22;;;11.03;74.40
13235;BME280;6683;48.506;9.050;2023-12-22T06:50:46;97224.59;;;11.05;74.55
13235;BME280;6683;48.506;9.050;2023-12-22T06:53:49;97248.97;;;11.07;74.62
13235;BME280;6683;48.506;9.050;2023-12-22T06:56:53;97230.03;;;11.10;74.12
13235;BME280;6683;48.506;9.050;2023-12-22T06:59:55;97228.81;;;11.12;74.63
13235;BME280;6683;48.506;9.050;2023-12-22T07:02:57;97231.22;;;11.14;74.10
13235;BME280;6683;48.506;9.050;2023-12-22T07:06:00;97216.19;;;11.14;74.07
13235;BME280;6683;48.506;9.050;2023-12-22T07:09:32;97212.16;;;11.12;74.59
13235;BME280;6683;48.506;9.050;2023-12-22T07:12:36;97212.16;;;11.12;74.00
13235;BME280;6683;48.506;9.050;2023-12-22T07:15:38;97210.56;;;11.11;74.12
13235;BME280;6683;48.506;9.050;2023-12-22T07:18:40;97215.22;;;11.09;74.05
13235;BME280;6683;48.506;9.050;2023-12-22T07:21:43;97224.16;;;11.08;73.88
13235;BME280;6683;48.506;9.050;2023-12-22T07:24:45;97239.22;;;11.07;73.73
13235;BME280;6683;48.506;9.050;2023-12-22T07:27:49;97236.78;;;11.06;73.96
13235;BME280;6683;48.506;9.050;2023-12-22T07:30:53;97236.78;;;11.06;73.58
13235;BME280;6683;48.506;9.050;2023-12-22T07:33:56;97235.16;;;11.05;73.91
13235;BME280;6683;48.506;9.050;2023-12-22T07:36:58;97239.63;;;11.04;73.64
13235;BME280;6683;48.506;9.050;2023-12-22T07:40:00;97245.13;;;11.03;73.91
13235;BME280;6683;48.506;9.050;2023-12-22T07:43:04;97250.59;;;11.01;73.99
13235;BME280;6683;48.506;9.050;2023-12-22T07:46:06;97253.47;;;11.00;73.69
13235;BME280;6683;48.506;9.050;2023-12-22T07:49:10;97236.03;;;10.99;73.61
13235;BME280;6683;48.506;9.050;2023-12-22T07:52:13;97246.00;;;10.97;73.98
13235;BME280;6683;48.506;9.050;2023-12-22T07:55:15;97238.47;;;10.94;73.94
13235;BME280;6683;48.506;9.050;2023-12-22T07:58:19;97236.06;;;10.92;73.64
13235;BME280;6683;48.506;9.050;2023-12-22T08:01:21;97244.97;;;10.91;73.66
13235;BME280;6683;48.506;9.050;2023-12-22T08:04:23;97238.91;;;10.91;73.98
13235;BME280;6683;48.506;9.050;2023-12-22T08:07:25;97234.66;;;10.90;73.78
13235;BME280;6683;48.506;9.050;2023-12-22T08:10:27;97239.91;;;10.90;73.74
13235;BME280;6683;48.506;9.050;2023-12-22T08:13:31;97245.19;;;10.90;73.89
13235;BME280;6683;48.506;9.050;2023-12-22T08:16:33;97256.56;;;10.90;74.09
13235;BME280;6683;48.506;9.050;2023-12-22T08:19:36;97265.31;;;10.91;74.00
13235;BME280;6683;48.506;9.050;2023-12-22T08:22:39;97259.81;;;10.92;73.94
13235;BME280;6683;48.506;9.050;2023-12-22T08:25:41;97247.63;;;10.91;73.95
13235;BME280;6683;48.506;9.050;2023-12-22T08:28:44;97254.75;;;10.91;73.96
13235;BME280;6683;48.506;9.050;2023-12-22T08:31:46;97250.25;;;10.91;74.12
13235;BME280;6683;48.506;9.050;2023-12-22T08:34:48;97257.19;;;10.92;74.03
13235;BME280;6683;48.506;9.050;2023-12-22T08:37:51;97255.13;;;10.94;73.90
13235;BME280;6683;48.506;9.050;2023-12-22T08:40:54;97252.28;;;10.96;74.21
13235;BME280;6683;48.506;9.050;2023-12-22T08:43:57;97246.59;;;10.99;74.08
13235;BME280;6683;48.506;9.050;2023-12-22T08:47:00;97252.25;;;11.02;74.36
13235;BME280;6683;48.506;9.050;2023-12-22T08:50:02;97271.09;;;11.06;73.85
13235;BME280;6683;48.506;9.050;2023-12-22T08:53:08;97268.47;;;11.06;74.02
13235;BME280;6683;48.506;9.050;2023-12-22T08:56:10;97276.19;;;11.07;74.30
13235;BME280;6683;48.506;9.050;2023-12-22T08:59:13;97270.09;;;11.07;74.15
13235;BME280;6683;48.506;9.050;2023-12-22T09:02:16;97281.06;;;11.04;73.89
13235;BME280;6683;48.506;9.050;2023-12-22T09:05:18;97280.31;;;10.97;73.70
13235;BME280;6683;48.506;9.050;2023-12-22T09:08:21;97296.19;;;10.90;73.79
13235;BME280;6683;48.506;9.050;2023-12-22T09:11:24;97302.50;;;10.83;73.76
13235;BME280;6683;48.506;9.050;2023-12-22T09:14:27;97289.94;;;10.78;73.59
13235;BME280;6683;48.506;9.050;2023-12-22T09:17:29;97292.16;;;10.75;73.91
13235;BME280;6683;48.506;9.050;2023-12-22T09:20:32;97298.66;;;10.72;73.89
13235;BME280;6683;48.506;9.050;2023-12-22T09:23:34;97301.31;;;10.72;73.87
13235;BME280;6683;48.506;9.050;2023-12-22T09:26:36;97303.16;;;10.72;74.41
13235;BME280;6683;48.506;9.050;2023-12-22T09:29:39;97306.59;;;10.72;74.45
13235;BME280;6683;48.506;9.050;2023-12-22T09:32:41;97320.19;;;10.76;74.13
13235;BME280;6683;48.506;9.050;2023-12-22T09:35:44;97322.63;;;10.77;74.40
13235;BME280;6683;48.506;9.050;2023-12-22T09:38:46;97323.22;;;10.79;74.10
13235;BME280;6683;48.506;9.050;2023-12-22T09:41:49;97317.94;;;10.79;74.21
13235;BME280;6683;48.506;9.050;2023-12-22T09:44:53;97318.16;;;10.78;74.41
13235;BME280;6683;48.506;9.050;2023-12-22T09:47:59;97325.03;;;10.79;74.37
13235;BME280;6683;48.506;9.050;2023-12-22T09:51:03;97326.69;;;10.80;74.19
13235;BME280;6683;48.506;9.050;2023-12-22T09:54:07;97323.00;;;10.81;74.32
13235;BME280;6683;48.506;9.050;2023-12-22T09:57:10;97327.28;;;10.82;74.51
13235;BME280;6683;48.506;9.050;2023-12-22T10:00:16;97324.41;;;10.83;74.44
13235;BME280;6683;48.506;9.050;2023-12-22T10:03:19;97323.19;;;10.86;74.50
13235;BME280;6683;48.506;9.050;2023-12-22T10:06:22;97326.22;;;10.89;74.34
13235;BME280;6683;48.506;9.050;2023-12-22T10:09:24;97326.03;;;10.91;74.81
13235;BME280;6683;48.506;9.050;2023-12-22T10:12:28;97307.34;;;10.92;74.40
13235;BME280;6683;48.506;9.050;2023-12-22T10:15:32;97285.00;;;10.95;74.44
13235;BME280;6683;48.506;9.050;2023-12-22T10:18:35;97296.94;;;10.97;74.29
13235;BME280;6683;48.506;9.050;2023-12-22T10:21:37;97275.63;;;10.99;74.54
13235;BME280;6683;48.506;9.050;2023-12-22T10:24:40;97275.41;;;11.00;74.60
13235;BME280;6683;48.506;9.050;2023-12-22T10:27:44;97277.00;;;11.01;74.28
13235;BME280;6683;48.506;9.050;2023-12-22T10:30:48;97276.22;;;11.01;74.69
13235;BME280;6683;48.506;9.050;2023-12-22T10:33:51;97279.47;;;11.03;74.40
13235;BME280;6683;48.506;9.050;2023-12-22T10:36:53;97275.78;;;11.04;74.22
13235;BME280;6683;48.506;9.050;2023-12-22T10:39:55;97268.69;;;11.04;74.42
13235;BME280;6683;48.506;9.050;2023-12-22T10:42:59;97272.13;;;11.05;74.35
13235;BME280;6683;48.506;9.050;2023-12-22T10:46:03;97262.41;;;11.05;74.30
13235;BME280;6683;48.506;9.050;2023-12-22T10:49:07;97260.75;;;11.04;74.56
13235;BME280;6683;48.506;9.050;2023-12-22T10:52:14;97249.38;;;11.04;74.14
13235;BME280;6683;48.506;9.050;2023-12-22T10:55:17;97242.50;;;11.03;74.40
13235;BME280;6683;48.506;9.050;2023-12-22T10:58:20;97241.69;;;11.02;74.28
13235;BME280;6683;48.506;9.050;2023-12-22T11:01:28;97241.69;;;11.02;74.57
13235;BME280;6683;48.506;9.050;2023-12-22T11:04:32;97234.75;;;11.01;74.37
13235;BME280;6683;48.506;9.050;2023-12-22T11:07:37;97239.25;;;11.01;74.39
13235;BME280;6683;48.506;9.050;2023-12-22T11:10:42;97235.19;;;10.98;74.69
13235;BME280;6683;48.506;9.050;2023-12-22T11:13:46;97225.47;;;10.99;74.59
13235;BME280;6683;48.506;9.050;2023-12-22T11:16:51;97224.66;;;10.98;74.42
13235;BME280;6683;48.506;9.050;2023-12-22T11:19:56;97213.28;;;10.98;74.29
13235;BME280;6683;48.506;9.050;2023-12-22T11:23:00;97221.41;;;10.96;74.24
13235;BME280;6683;48.506;9.050;2023-12-22T11:26:03;97218.78;;;10.96;74.37
13235;BME280;6683;48.506;9.050;2023-12-22T11:29:07;97223.22;;;10.96;74.52
13235;BME280;6683;48.506;9.050;2023-12-22T11:32:11;97211.06;;;10.95;74.65
13235;BME280;6683;48.506;9.050;2023-12-22T11:35:16;97194.41;;;10.94;74.62
13235;BME280;6683;48.506;9.050;2023-12-22T11:38:19;97192.78;;;10.93;74.86
13235;BME280;6683;48.506;9.050;2023-12-22T11:41:24;97186.72;;;10.93;74.70
13235;BME280;6683;48.506;9.050;2023-12-22T11:44:28;97170.66;;;10.94;74.47
13235;BME280;6683;48.506;9.050;2023-12-22T11:47:31;97168.81;;;10.95;74.94
13235;BME280;6683;48.506;9.050;2023-12-22T11:50:34;97157.22;;;10.96;74.62
13235;BME280;6683;48.506;9.050;2023-12-22T11:53:36;97156.22;;;10.97;74.89
13235;BME280;6683;48.506;9.050;2023-12-22T11:56:39;97144.84;;;10.96;74.39
13235;BME280;6683;48.506;9.050;2023-12-22T11:59:41;97137.75;;;10.97;74.84
13235;BME280;6683;48.506;9.050;2023-12-22T12:02:54;97127.38;;;10.95;75.05
13235;BME280;6683;48.506;9.050;2023-12-22T12:06:31;97121.31;;;10.95;75.02
13235;BME280;6683;48.506;9.050;2023-12-22T12:09:45;97134.28;;;10.96;74.98
13235;BME280;6683;48.506;9.050;2023-12-22T12:12:48;97121.91;;;10.97;74.70
13235;BME280;6683;48.506;9.050;2023-12-22T12:16:07;97118.44;;;10.96;74.97
13235;BME280;6683;48.506;9.050;2023-12-22T12:19:10;97113.16;;;10.96;74.71
13235;BME280;6683;48.506;9.050;2023-12-22T12:22:13;97110.53;;;10.96;74.57
13235;BME280;6683;48.506;9.050;2023-12-22T12:25:15;97096.50;;;10.96;74.92
13235;BME280;6683;48.506;9.050;2023-12-22T12:28:26;97086.97;;;10.95;75.19
13235;BME280;6683;48.506;9.050;2023-12-22T12:31:36;97076.44;;;10.95;75.00
13235;BME280;6683;48.506;9.050;2023-12-22T12:34:43;97068.88;;;10.98;74.85
13235;BME280;6683;48.506;9.050;2023-12-22T12:37:45;97053.03;;;10.98;74.82
13235;BME280;6683;48.506;9.050;2023-12-22T12:40:51;97041.66;;;10.98;75.11
13235;BME280;6683;48.506;9.050;2023-12-22T12:43:53;97033.31;;;11.01;75.25
13235;BME280;6683;48.506;9.050;2023-12-22T12:46:57;97031.69;;;11.00;74.86
13235;BME280;6683;48.506;9.050;2023-12-22T12:50:01;97030.69;;;11.01;75.08
13235;BME280;6683;48.506;9.050;2023-12-22T12:53:05;97032.06;;;11.03;75.11
13235;BME280;6683;48.506;9.050;2023-12-22T12:56:07;97029.22;;;11.05;75.28
13235;BME280;6683;48.506;9.050;2023-12-22T12:59:11;97034.03;;;11.08;75.34
13235;BME280;6683;48.506;9.050;2023-12-22T13:02:15;97034.63;;;11.10;75.23
13235;BME280;6683;48.506;9.050;2023-12-22T13:05:25;97036.84;;;11.13;75.60
13235;BME280;6683;48.506;9.050;2023-12-22T13:08:27;97027.47;;;11.17;75.29
13235;BME280;6683;48.506;9.050;2023-12-22T13:11:30;97033.09;;;11.20;75.13
13235;BME280;6683;48.506;9.050;2023-12-22T13:14:33;97039.78;;;11.23;75.21
13235;BME280;6683;48.506;9.050;2023-12-22T13:17:35;97045.44;;;11.26;75.32
13235;BME280;6683;48.506;9.050;2023-12-22T13:20:38;97048.91;;;11.27;75.63
13235;BME280;6683;48.506;9.050;2023-12-22T13:23:41;97055.59;;;11.30;75.50
13235;BME280;6683;48.506;9.050;2023-12-22T13:26:44;97070.19;;;11.32;75.36
13235;BME280;6683;48.506;9.050;2023-12-22T13:29:46;97066.31;;;11.35;75.20
13235;BME280;6683;48.506;9.050;2023-12-22T13:32:54;97065.03;;;11.37;75.22
13235;BME280;6683;48.506;9.050;2023-12-22T13:35:58;97051.63;;;11.39;75.10
13235;BME280;6683;48.506;9.050;2023-12-22T13:39:00;97074.16;;;11.41;75.05
13235;BME280;6683;48.506;9.050;2023-12-22T13:42:05;97057.28;;;11.42;75.47
13235;BME280;6683;48.506;9.050;2023-12-22T13:45:10;97066.81;;;11.43;75.33
13235;BME280;6683;48.506;9.050;2023-12-22T13:48:16;97064.78;;;11.45;75.33
13235;BME280;6683;48.506;9.050;2023-12-22T13:51:20;97069.84;;;11.47;75.46
13235;BME280;6683;48.506;9.050;2023-12-22T13:54:32;97064.31;;;11.48;75.67
13235;BME280;6683;48.506;9.050;2023-12-22T13:57:34;97078.72;;;11.52;75.40
13235;BME280;6683;48.506;9.050;2023-12-22T14:00:36;97079.53;;;11.53;75.27
13235;BME280;6683;48.506;9.050;2023-12-22T14:03:39;97082.75;;;11.55;75.32
13235;BME280;6683;48.506;9.050;2023-12-22T14:06:43;97081.72;;;11.56;75.54
13235;BME280;6683;48.506;9.050;2023-12-22T14:09:45;97086.00;;;11.57;75.42
13235;BME280;6683;48.506;9.050;2023-12-22T14:12:47;97087.59;;;11.58;75.48
13235;BME280;6683;48.506;9.050;2023-12-22T14:15:49;97097.75;;;11.61;75.50
13235;BME280;6683;48.506;9.050;2023-12-22T14:18:52;97102.00;;;11.62;75.49
13235;BME280;6683;48.506;9.050;2023-12-22T14:21:57;97100.38;;;11.61;75.21
13235;BME280;6683;48.506;9.050;2023-12-22T14:24:59;97104.66;;;11.62;75.43
13235;BME280;6683;48.506;9.050;2023-12-22T14:28:01;97107.28;;;11.62;75.44
13235;BME280;6683;48.506;9.050;2023-12-22T14:31:03;97105.66;;;11.61;75.48
13235;BME280;6683;48.506;9.050;2023-12-22T14:34:05;97106.47;;;11.61;75.37
13235;BME280;6683;48.506;9.050;2023-12-22T14:37:09;97095.69;;;11.63;75.64
13235;BME280;6683;48.506;9.050;2023-12-22T14:40:11;97102.59;;;11.64;75.37
13235;BME280;6683;48.506;9.050;2023-12-22T14:43:14;97103.19;;;11.66;75.49
13235;BME280;6683;48.506;9.050;2023-12-22T14:46:16;97108.28;;;11.67;75.36
13235;BME280;6683;48.506;9.050;2023-12-22T14:49:18;97107.47;;;11.67;75.55
13235;BME280;6683;48.506;9.050;2023-12-22T14:52:21;97116.19;;;11.67;75.42
13235;BME280;6683;48.506;9.050;2023-12-22T14:55:24;97122.06;;;11.69;75.73
13235;BME280;6683;48.506;9.050;2023-12-22T14:58:26;97133.00;;;11.73;75.55
13235;BME280;6683;48.506;9.050;2023-12-22T15:01:29;97127.53;;;11.74;75.55
13235;BME280;6683;48.506;9.050;2023-12-22T15:04:34;97135.81;;;11.78;75.46
13235;BME280;6683;48.506;9.050;2023-12-22T15:07:37;97128.13;;;11.76;75.56
13235;BME280;6683;48.506;9.050;2023-12-22T15:10:39;97148.81;;;11.79;75.49
13235;BME280;6683;48.506;9.050;2023-12-22T15:13:41;97152.25;;;11.80;75.62
13235;BME280;6683;48.506;9.050;2023-12-22T15:16:44;97156.50;;;11.81;75.51
13235;BME280;6683;48.506;9.050;2023-12-22T15:19:47;97163.66;;;11.80;75.49
13235;BME280;6683;48.506;9.050;2023-12-22T15:22:51;97162.03;;;11.79;75.45
13235;BME280;6683;48.506;9.050;2023-12-22T15:25:53;97162.84;;;11.80;75.46
13235;BME280;6683;48.506;9.050;2023-12-22T15:28:55;97171.78;;;11.79;75.21
13235;BME280;6683;48.506;9.050;2023-12-22T15:31:58;97168.78;;;11.75;75.12
13235;BME280;6683;48.506;9.050;2023-12-22T15:35:00;97166.38;;;11.74;75.35
13235;BME280;6683;48.506;9.050;2023-12-22T15:38:04;97169.19;;;11.72;75.48
13235;BME280;6683;48.506;9.050;2023-12-22T15:41:06;97174.72;;;11.71;75.30
13235;BME280;6683;48.506;9.050;2023-12-22T15:44:08;97191.63;;;11.70;75.30
13235;BME280;6683;48.506;9.050;2023-12-22T15:47:10;97194.47;;;11.68;75.40
13235;BME280;6683;48.506;9.050;2023-12-22T15:50:12;97203.19;;;11.69;75.44
13235;BME280;6683;48.506;9.050;2023-12-22T15:53:16;97204.00;;;11.69;75.71
13235;BME280;6683;48.506;9.050;2023-12-22T15:56:18;97209.53;;;11.68;75.53
13235;BME280;6683;48.506;9.050;2023-12-22T15:59:20;97219.28;;;11.67;75.35
13235;BME280;6683;48.506;9.050;2023-12-22T16:02:26;97215.00;;;11.66;75.46
13235;BME280;6683;48.506;9.050;2023-12-22T16:05:28;97228.03;;;11.68;75.77
13235;BME280;6683;48.506;9.050;2023-12-22T16:08:32;97217.66;;;11.66;75.68
13235;BME280;6683;48.506;9.050;2023-12-22T16:11:36;97214.81;;;11.68;75.56
13235;BME280;6683;48.506;9.050;2023-12-22T16:14:38;97223.53;;;11.68;75.99
13235;BME280;6683;48.506;9.050;2023-12-22T16:17:40;97214.59;;;11.69;75.86
13235;BME280;6683;48.506;9.050;2023-12-22T16:20:42;97226.75;;;11.70;75.71
13235;BME280;6683;48.506;9.050;2023-12-22T16:23:46;97215.19;;;11.71;76.03
13235;BME280;6683;48.506;9.050;2023-12-22T16:26:48;97240.38;;;11.74;76.07